M\t Procida — IBJT — position and weather

sailwx.info

Track history (hours):
 
Tides and Currents Weather Stations Pressure Air Temp Water Temp Dewpoint Dewpoint Depression Visibility Wind Speed Wind Dir Waves Ship Positions

M\t Procida

Last reported at 2017-Feb-22 16:33 UTC. Time now 2017-Feb-22 20:04 UTC.
Position N 55°60' W 001°42'.

Length 149 m; draft 9.2 m.

Type: Tanker. MMSI: 247258400.

Date/timePositionNaut miles runAvg speedWind from/ knotsBaromVisibWave heightAir tempDewpointWater temp
2017-Feb-22 16:33N 55°60' W 001°42'1313.6
2017-Feb-22 15:33N 56°04' W 002°05'1413.7
2017-Feb-22 14:33N 56°07' W 002°29'1413.6
2017-Feb-22 13:34N 56°05' W 002°53'1212.0
2017-Feb-22 12:33N 56°02' W 003°14'15 7.4
2017-Feb-22 10:29N 56°02' W 003°41'  
2017-Feb-19 09:04N 56°02' W 003°41'2 1.6
2017-Feb-19 07:32N 56°02' W 003°37'8 6.9
2017-Feb-19 06:24N 56°00' W 003°24'6 6.8
2017-Feb-19 05:33N 56°02' W 003°14'6 5.8
2017-Feb-19 04:33N 56°05' W 003°05'0 0.1
2017-Feb-19 03:33N 56°05' W 003°05'0 0.0
2017-Feb-19 02:33N 56°05' W 003°05'0 0.0
2017-Feb-19 01:33N 56°05' W 003°05'0 0.0
2017-Feb-19 00:33N 56°05' W 003°05'0 0.0
2017-Feb-18 23:33N 56°05' W 003°05'0 0.0
2017-Feb-18 22:33N 56°05' W 003°05'0 0.0
2017-Feb-18 21:33N 56°05' W 003°05'0 0.0
2017-Feb-18 20:33N 56°05' W 003°05'0 0.0
2017-Feb-18 19:33N 56°05' W 003°05'0 0.0
2017-Feb-18 18:33N 56°05' W 003°05'0 0.0
2017-Feb-18 17:33N 56°05' W 003°05'0 0.0
2017-Feb-18 16:33N 56°05' W 003°05'0 0.0
2017-Feb-18 15:33N 56°05' W 003°05'0 0.0
2017-Feb-18 14:33N 56°05' W 003°05'0 0.0
2017-Feb-18 13:33N 56°05' W 003°05'0 0.0
2017-Feb-18 12:33N 56°05' W 003°05'0 0.0
2017-Feb-18 11:33N 56°05' W 003°05'0 0.0
2017-Feb-18 10:33N 56°05' W 003°05'0 0.0
2017-Feb-18 09:33N 56°05' W 003°05'0 0.0
2017-Feb-18 08:33N 56°05' W 003°05'0 0.0
2017-Feb-18 07:33N 56°05' W 003°05'5 4.6
2017-Feb-18 06:33N 56°05' W 002°57'1313.0
2017-Feb-18 05:33N 56°07' W 002°33'1312.9
2017-Feb-18 04:33N 56°09' W 002°11'1312.7
2017-Feb-18 03:33N 56°11' W 001°48'40712.5
2017-Feb-16 19:06N 57°48' E 010°17'712.9
2017-Feb-16 18:33N 57°50' E 010°30'1010.0
2017-Feb-16 17:33N 57°46' E 010°47'7 6.9
2017-Feb-16 16:34N 57°42' E 010°36'0 0.4
2017-Feb-16 15:33N 57°42' E 010°37'0 0.0
2017-Feb-16 14:33N 57°42' E 010°37'0 0.2
2017-Feb-16 13:33N 57°42' E 010°36'6 5.8
2017-Feb-16 12:33N 57°40' E 010°46'1313.1
2017-Feb-16 11:33N 57°33' E 011°08'1211.8
2017-Feb-16 10:33N 57°28' E 011°28'1212.4
2017-Feb-16 09:33N 57°17' E 011°35'1312.8
2017-Feb-16 08:31N 57°04' E 011°43'1312.9
2017-Feb-16 07:32N 56°52' E 011°51'1111.5
2017-Feb-16 06:33N 56°41' E 011°51'3113.0
2017-Feb-16 04:09N 56°14' E 011°21'912.8
2017-Feb-16 03:27N 56°07' E 011°11'1112.4
2017-Feb-16 02:33N 55°58' E 011°01'1212.4
2017-Feb-16 01:33N 55°47' E 010°49'12 9.0
2017-Feb-16 00:15N 55°40' E 011°06'0 0.0
2017-Feb-14 22:30N 55°40' E 011°06'2 2.0
2017-Feb-14 21:34N 55°41' E 011°02'9 8.7
2017-Feb-14 20:33N 55°37' E 010°48'1111.2
2017-Feb-14 19:33N 55°27' E 010°57'1313.1
2017-Feb-14 18:33N 55°15' E 011°05'1313.2
2017-Feb-14 17:33N 55°02' E 011°03'1212.2
2017-Feb-14 16:33N 54°51' E 010°53'1111.4
2017-Feb-14 15:33N 54°40' E 010°59'6 6.4
2017-Feb-14 14:34N 54°35' E 011°04'1212.2
2017-Feb-14 13:33N 54°34' E 010°43'1312.6
2017-Feb-14 12:33N 54°30' E 010°22'1110.9
2017-Feb-14 11:33N 54°22' E 010°10'3 3.4
2017-Feb-14 10:33N 54°22' E 010°04'6 6.1
2017-Feb-14 09:31N 54°21' E 009°53'7 6.9
2017-Feb-14 08:32N 54°18' E 009°43'8 7.7
2017-Feb-14 07:33N 54°12' E 009°34'8 8.2
2017-Feb-14 06:33N 54°09' E 009°22'8 8.2
2017-Feb-14 05:33N 54°01' E 009°18'8 7.9
2017-Feb-14 04:33N 53°55' E 009°10'2 1.8
2017-Feb-14 03:33N 53°53' E 009°08'7 7.0
2017-Feb-14 02:33N 53°51' E 008°57'1212.5
2017-Feb-14 01:34N 53°57' E 008°38'1413.8
2017-Feb-14 00:33N 53°60' E 008°15'1211.7
2017-Feb-13 23:33N 53°58' E 007°56'1413.4
2017-Feb-13 22:32N 53°55' E 007°33'1413.7
2017-Feb-13 21:30N 53°51' E 007°10'3113.0
2017-Feb-13 19:07N 53°44' E 006°19'3011.8
2017-Feb-13 16:33N 53°35' E 005°31'1210.9
2017-Feb-13 15:25N 53°31' E 005°11'910.5
2017-Feb-13 14:33N 53°28' E 004°56'20 9.8
2017-Feb-13 12:31N 53°14' E 004°34'1111.2
2017-Feb-13 11:33N 53°04' E 004°26'1111.1
2017-Feb-13 10:33N 52°54' E 004°17'1111.0
2017-Feb-13 09:33N 52°45' E 004°07'1111.3
2017-Feb-13 08:33N 52°35' E 003°57'1211.9
2017-Feb-13 07:33N 52°27' E 003°43'1212.1
2017-Feb-13 06:33N 52°19' E 003°28'1312.7
2017-Feb-13 05:33N 52°11' E 003°12'1212.3
2017-Feb-13 04:33N 52°01' E 003°01'9 9.5
2017-Feb-13 03:34N 51°52' E 002°55'1313.0
2017-Feb-13 02:32N 51°45' E 003°13'1212.1
2017-Feb-13 01:33N 51°35' E 003°24'1111.3
2017-Feb-13 00:33N 51°26' E 003°34'9 8.8
2017-Feb-12 23:34N 51°22' E 003°46'1010.1
2017-Feb-12 22:33N 51°26' E 004°01'1110.7
2017-Feb-12 21:33N 51°20' E 004°16'4 4.4
2017-Feb-12 20:34N 51°17' E 004°20'1 0.5
2017-Feb-12 19:33N 51°17' E 004°21'0 0.4
2017-Feb-12 18:33N 51°16' E 004°21'0 0.0
2017-Feb-12 17:30N 51°16' E 004°21'  
Track history (hours):
 
Tides and Currents Weather Stations Pressure Air Temp Water Temp Dewpoint Dewpoint Depression Visibility Wind Speed Wind Dir Waves Ship Positions

M\t Procida

Last reported at 2017-Feb-22 16:33 UTC. Time now 2017-Feb-22 20:04 UTC.
Position N 55°60' W 001°42'.

Length 149 m; draft 9.2 m.

Type: Tanker. MMSI: 247258400.

Date/timePositionNaut miles runAvg speedWind from/ knotsBaromVisibWave heightAir tempDewpointWater temp
2017-Feb-22 16:33N 55°60' W 001°42'1313.6
2017-Feb-22 15:33N 56°04' W 002°05'1413.7
2017-Feb-22 14:33N 56°07' W 002°29'1413.6
2017-Feb-22 13:34N 56°05' W 002°53'1212.0
2017-Feb-22 12:33N 56°02' W 003°14'15 7.4
2017-Feb-22 10:29N 56°02' W 003°41'  
2017-Feb-19 09:04N 56°02' W 003°41'2 1.6
2017-Feb-19 07:32N 56°02' W 003°37'8 6.9
2017-Feb-19 06:24N 56°00' W 003°24'6 6.8
2017-Feb-19 05:33N 56°02' W 003°14'6 5.8
2017-Feb-19 04:33N 56°05' W 003°05'0 0.1
2017-Feb-19 03:33N 56°05' W 003°05'0 0.0
2017-Feb-19 02:33N 56°05' W 003°05'0 0.0
2017-Feb-19 01:33N 56°05' W 003°05'0 0.0
2017-Feb-19 00:33N 56°05' W 003°05'0 0.0
2017-Feb-18 23:33N 56°05' W 003°05'0 0.0
2017-Feb-18 22:33N 56°05' W 003°05'0 0.0
2017-Feb-18 21:33N 56°05' W 003°05'0 0.0
2017-Feb-18 20:33N 56°05' W 003°05'0 0.0
2017-Feb-18 19:33N 56°05' W 003°05'0 0.0
2017-Feb-18 18:33N 56°05' W 003°05'0 0.0
2017-Feb-18 17:33N 56°05' W 003°05'0 0.0
2017-Feb-18 16:33N 56°05' W 003°05'0 0.0
2017-Feb-18 15:33N 56°05' W 003°05'0 0.0
2017-Feb-18 14:33N 56°05' W 003°05'0 0.0
2017-Feb-18 13:33N 56°05' W 003°05'0 0.0
2017-Feb-18 12:33N 56°05' W 003°05'0 0.0
2017-Feb-18 11:33N 56°05' W 003°05'0 0.0
2017-Feb-18 10:33N 56°05' W 003°05'0 0.0
2017-Feb-18 09:33N 56°05' W 003°05'0 0.0
2017-Feb-18 08:33N 56°05' W 003°05'0 0.0
2017-Feb-18 07:33N 56°05' W 003°05'5 4.6
2017-Feb-18 06:33N 56°05' W 002°57'1313.0
2017-Feb-18 05:33N 56°07' W 002°33'1312.9
2017-Feb-18 04:33N 56°09' W 002°11'1312.7
2017-Feb-18 03:33N 56°11' W 001°48'40712.5
2017-Feb-16 19:06N 57°48' E 010°17'712.9
2017-Feb-16 18:33N 57°50' E 010°30'1010.0
2017-Feb-16 17:33N 57°46' E 010°47'7 6.9
2017-Feb-16 16:34N 57°42' E 010°36'0 0.4
2017-Feb-16 15:33N 57°42' E 010°37'0 0.0
2017-Feb-16 14:33N 57°42' E 010°37'0 0.2
2017-Feb-16 13:33N 57°42' E 010°36'6 5.8
2017-Feb-16 12:33N 57°40' E 010°46'1313.1
2017-Feb-16 11:33N 57°33' E 011°08'1211.8
2017-Feb-16 10:33N 57°28' E 011°28'1212.4
2017-Feb-16 09:33N 57°17' E 011°35'1312.8
2017-Feb-16 08:31N 57°04' E 011°43'1312.9
2017-Feb-16 07:32N 56°52' E 011°51'1111.5
2017-Feb-16 06:33N 56°41' E 011°51'3113.0
2017-Feb-16 04:09N 56°14' E 011°21'912.8
2017-Feb-16 03:27N 56°07' E 011°11'1112.4
2017-Feb-16 02:33N 55°58' E 011°01'1212.4
2017-Feb-16 01:33N 55°47' E 010°49'12 9.0
2017-Feb-16 00:15N 55°40' E 011°06'0 0.0
2017-Feb-14 22:30N 55°40' E 011°06'2 2.0
2017-Feb-14 21:34N 55°41' E 011°02'9 8.7
2017-Feb-14 20:33N 55°37' E 010°48'1111.2
2017-Feb-14 19:33N 55°27' E 010°57'1313.1
2017-Feb-14 18:33N 55°15' E 011°05'1313.2
2017-Feb-14 17:33N 55°02' E 011°03'1212.2
2017-Feb-14 16:33N 54°51' E 010°53'1111.4
2017-Feb-14 15:33N 54°40' E 010°59'6 6.4
2017-Feb-14 14:34N 54°35' E 011°04'1212.2
2017-Feb-14 13:33N 54°34' E 010°43'1312.6
2017-Feb-14 12:33N 54°30' E 010°22'1110.9
2017-Feb-14 11:33N 54°22' E 010°10'3 3.4
2017-Feb-14 10:33N 54°22' E 010°04'6 6.1
2017-Feb-14 09:31N 54°21' E 009°53'7 6.9
2017-Feb-14 08:32N 54°18' E 009°43'8 7.7
2017-Feb-14 07:33N 54°12' E 009°34'8 8.2
2017-Feb-14 06:33N 54°09' E 009°22'8 8.2
2017-Feb-14 05:33N 54°01' E 009°18'8 7.9
2017-Feb-14 04:33N 53°55' E 009°10'2 1.8
2017-Feb-14 03:33N 53°53' E 009°08'7 7.0
2017-Feb-14 02:33N 53°51' E 008°57'1212.5
2017-Feb-14 01:34N 53°57' E 008°38'1413.8
2017-Feb-14 00:33N 53°60' E 008°15'1211.7
2017-Feb-13 23:33N 53°58' E 007°56'1413.4
2017-Feb-13 22:32N 53°55' E 007°33'1413.7
2017-Feb-13 21:30N 53°51' E 007°10'3113.0
2017-Feb-13 19:07N 53°44' E 006°19'3011.8
2017-Feb-13 16:33N 53°35' E 005°31'1210.9
2017-Feb-13 15:25N 53°31' E 005°11'910.5
2017-Feb-13 14:33N 53°28' E 004°56'20 9.8
2017-Feb-13 12:31N 53°14' E 004°34'1111.2
2017-Feb-13 11:33N 53°04' E 004°26'1111.1
2017-Feb-13 10:33N 52°54' E 004°17'1111.0
2017-Feb-13 09:33N 52°45' E 004°07'1111.3
2017-Feb-13 08:33N 52°35' E 003°57'1211.9
2017-Feb-13 07:33N 52°27' E 003°43'1212.1
2017-Feb-13 06:33N 52°19' E 003°28'1312.7
2017-Feb-13 05:33N 52°11' E 003°12'1212.3
2017-Feb-13 04:33N 52°01' E 003°01'9 9.5
2017-Feb-13 03:34N 51°52' E 002°55'1313.0
2017-Feb-13 02:32N 51°45' E 003°13'1212.1
2017-Feb-13 01:33N 51°35' E 003°24'1111.3
2017-Feb-13 00:33N 51°26' E 003°34'9 8.8
2017-Feb-12 23:34N 51°22' E 003°46'1010.1
2017-Feb-12 22:33N 51°26' E 004°01'1110.7
2017-Feb-12 21:33N 51°20' E 004°16'4 4.4
2017-Feb-12 20:34N 51°17' E 004°20'1 0.5
2017-Feb-12 19:33N 51°17' E 004°21'0 0.4
2017-Feb-12 18:33N 51°16' E 004°21'0 0.0
2017-Feb-12 17:30N 51°16' E 004°21'  

Dump ship's entire track history